createdAt,value
2018-04-29T00:02:02.165Z,20.67
2018-04-29T00:04:27.976Z,20.70
2018-04-29T00:06:53.816Z,20.74
2018-04-29T00:09:19.645Z,20.75
2018-04-29T00:11:45.480Z,20.74
2018-04-29T00:14:11.285Z,20.74
2018-04-29T00:16:37.792Z,20.78
2018-04-29T00:19:03.593Z,20.82
2018-04-29T00:21:29.434Z,20.82
2018-04-29T00:23:55.280Z,20.81
2018-04-29T00:26:21.085Z,20.71
2018-04-29T00:28:46.896Z,20.72
2018-04-29T00:31:12.697Z,20.80
2018-04-29T00:33:38.502Z,20.80
2018-04-29T00:36:04.402Z,20.81
2018-04-29T00:38:30.236Z,20.80
2018-04-29T00:40:56.049Z,20.83
2018-04-29T00:43:21.877Z,20.69
2018-04-29T00:45:47.686Z,20.82
2018-04-29T00:48:13.540Z,20.73
2018-04-29T00:50:39.460Z,20.74
2018-04-29T00:53:05.265Z,20.67
2018-04-29T00:55:31.193Z,20.74
2018-04-29T00:57:57.013Z,20.70
2018-04-29T01:00:22.829Z,20.73
2018-04-29T01:02:48.638Z,20.74
2018-04-29T01:05:14.437Z,20.67
2018-04-29T01:07:40.244Z,20.65
2018-04-29T01:10:06.077Z,20.70
2018-04-29T01:12:31.887Z,20.69
2018-04-29T01:14:57.718Z,20.62
2018-04-29T01:17:23.521Z,20.71
2018-04-29T01:19:49.348Z,20.72
2018-04-29T01:22:15.157Z,20.64
2018-04-29T01:24:40.960Z,20.71
2018-04-29T01:27:06.776Z,20.72
2018-04-29T01:29:33.105Z,20.65
2018-04-29T01:31:58.909Z,20.55
2018-04-29T01:34:24.724Z,20.65
2018-04-29T01:36:50.529Z,20.68
2018-04-29T01:39:16.337Z,20.60
2018-04-29T01:41:42.176Z,20.56
2018-04-29T01:44:07.981Z,20.57
2018-04-29T01:46:33.812Z,20.54
2018-04-29T01:48:59.620Z,20.52
2018-04-29T01:51:25.424Z,20.51
2018-04-29T01:53:51.388Z,20.47
2018-04-29T01:56:17.199Z,20.55
2018-04-29T01:58:43.029Z,20.54
2018-04-29T02:01:08.880Z,20.53
2018-04-29T02:03:34.714Z,20.55
2018-04-29T02:06:00.525Z,20.51
2018-04-29T02:08:26.332Z,20.52
2018-04-29T02:10:52.172Z,20.50
2018-04-29T02:13:17.973Z,20.54
2018-04-29T02:15:43.812Z,20.45
2018-04-29T02:18:09.651Z,20.40
2018-04-29T02:20:35.457Z,20.48
2018-04-29T02:23:01.271Z,20.45
2018-04-29T02:25:27.072Z,20.52
2018-04-29T02:27:52.879Z,20.53
2018-04-29T02:30:18.685Z,20.55
2018-04-29T02:32:44.480Z,20.52
2018-04-29T02:35:10.293Z,20.48
2018-04-29T02:37:36.693Z,20.51
2018-04-29T02:40:02.530Z,20.47
2018-04-29T02:42:28.339Z,20.42
2018-04-29T02:44:54.140Z,20.42
2018-04-29T02:47:19.937Z,20.46
2018-04-29T02:49:45.748Z,20.49
2018-04-29T02:52:11.554Z,20.34
2018-04-29T02:54:37.366Z,20.41
2018-04-29T02:57:03.211Z,20.30
2018-04-29T02:59:29.661Z,20.27
2018-04-29T03:01:55.474Z,20.35
2018-04-29T03:04:21.353Z,20.37
2018-04-29T03:06:47.159Z,20.52
2018-04-29T03:09:13.002Z,20.45
2018-04-29T03:11:38.805Z,20.52
2018-04-29T03:14:04.640Z,20.52
2018-04-29T03:16:30.441Z,20.45
2018-04-29T03:18:56.292Z,20.56
2018-04-29T03:21:22.821Z,20.47
2018-04-29T03:23:48.736Z,20.47
2018-04-29T03:26:14.545Z,20.56
2018-04-29T03:28:40.408Z,20.55
2018-04-29T03:31:06.236Z,20.47
2018-04-29T03:33:32.089Z,20.47
2018-04-29T03:35:57.901Z,20.42
2018-04-29T03:38:23.701Z,20.30
2018-04-29T03:40:49.504Z,20.20
2018-04-29T03:43:15.340Z,20.39
2018-04-29T03:45:41.149Z,20.55
2018-04-29T03:48:06.960Z,20.51
2018-04-29T03:50:32.887Z,20.46
2018-04-29T03:52:58.774Z,20.46
2018-04-29T03:55:24.609Z,20.43
2018-04-29T03:57:56.540Z,20.57
2018-04-29T04:00:28.665Z,20.42
2018-04-29T04:03:00.721Z,20.35
2018-04-29T04:05:26.548Z,20.36
2018-04-29T04:07:52.390Z,20.45
2018-04-29T04:10:18.221Z,20.43
2018-04-29T04:12:44.025Z,20.43
2018-04-29T04:15:10.056Z,20.37
2018-04-29T04:17:35.878Z,20.44
2018-04-29T04:20:01.711Z,20.44
2018-04-29T04:22:27.520Z,20.46
2018-04-29T04:24:53.321Z,20.45
2018-04-29T04:27:19.152Z,20.32
2018-04-29T04:29:44.969Z,20.36
2018-04-29T04:32:10.813Z,20.36
2018-04-29T04:34:36.633Z,20.30
2018-04-29T04:37:02.472Z,20.24
2018-04-29T04:39:28.278Z,20.43
2018-04-29T04:41:54.113Z,20.40
2018-04-29T04:44:19.921Z,20.43
2018-04-29T04:46:45.729Z,20.36
2018-04-29T04:49:11.557Z,20.32
2018-04-29T04:51:37.380Z,20.24
2018-04-29T04:54:03.212Z,20.36
2018-04-29T04:56:29.016Z,20.39
2018-04-29T04:58:54.825Z,20.51
2018-04-29T05:01:20.633Z,20.47
2018-04-29T05:03:46.441Z,20.50
2018-04-29T05:06:12.252Z,20.40
2018-04-29T05:08:38.060Z,20.36
2018-04-29T05:11:03.983Z,20.40
2018-04-29T05:13:29.808Z,20.50
2018-04-29T05:15:55.693Z,20.37
2018-04-29T05:18:28.495Z,20.38
2018-04-29T05:20:54.313Z,20.32
2018-04-29T05:23:20.121Z,20.46
2018-04-29T05:25:45.949Z,20.45
2018-04-29T05:28:11.769Z,20.43
2018-04-29T05:30:38.519Z,20.33
2018-04-29T05:33:04.325Z,20.42
2018-04-29T05:35:30.382Z,20.35
2018-04-29T05:37:56.119Z,20.34
2018-04-29T05:40:21.924Z,20.31
2018-04-29T05:42:47.753Z,20.39
2018-04-29T05:45:13.562Z,20.49
2018-04-29T05:47:39.374Z,20.36
2018-04-29T05:50:05.188Z,20.36
2018-04-29T05:52:30.996Z,20.37
2018-04-29T05:54:56.936Z,20.47
2018-04-29T05:57:22.857Z,20.58
2018-04-29T05:59:48.669Z,20.65
2018-04-29T06:02:14.477Z,20.72
2018-04-29T06:04:40.281Z,20.73
2018-04-29T06:07:06.140Z,20.68
2018-04-29T06:09:31.941Z,20.76
2018-04-29T06:11:57.785Z,20.77
2018-04-29T06:14:23.706Z,20.74
2018-04-29T06:16:49.623Z,20.70
2018-04-29T06:19:15.638Z,20.64
2018-04-29T06:21:41.449Z,20.78
2018-04-29T06:24:07.284Z,20.78
2018-04-29T06:26:33.118Z,20.72
2018-04-29T06:28:58.926Z,20.78
2018-04-29T06:31:24.741Z,20.76
2018-04-29T06:33:50.539Z,20.76
2018-04-29T06:36:16.384Z,20.81
2018-04-29T06:38:42.341Z,20.79
2018-04-29T06:41:08.163Z,20.80
2018-04-29T06:43:34.068Z,20.76
2018-04-29T06:45:59.889Z,20.78
2018-04-29T06:48:25.783Z,20.75
2018-04-29T06:50:51.536Z,20.81
2018-04-29T06:53:17.345Z,20.81
2018-04-29T06:55:43.148Z,20.76
2018-04-29T06:58:08.952Z,20.79
2018-04-29T07:00:34.887Z,20.80
2018-04-29T07:03:00.721Z,20.81
2018-04-29T07:05:26.568Z,20.84
2018-04-29T07:07:52.372Z,20.79
2018-04-29T07:10:18.184Z,20.82
2018-04-29T07:12:43.993Z,20.80
2018-04-29T07:15:09.801Z,20.83
2018-04-29T07:17:35.608Z,20.82
2018-04-29T07:20:01.489Z,20.83
2018-04-29T07:22:27.292Z,20.86
2018-04-29T07:24:53.129Z,20.83
2018-04-29T07:27:19.957Z,20.81
2018-04-29T07:29:45.773Z,20.81
2018-04-29T07:32:11.605Z,20.85
2018-04-29T07:34:37.418Z,20.84
2018-04-29T07:37:03.261Z,20.81
2018-04-29T07:39:29.102Z,20.80
2018-04-29T07:41:54.947Z,20.86
2018-04-29T07:44:20.785Z,20.74
2018-04-29T07:46:46.584Z,20.77
2018-04-29T07:49:12.544Z,20.79
2018-04-29T07:51:38.364Z,20.81
2018-04-29T07:54:04.190Z,20.81
2018-04-29T07:56:29.997Z,20.82
2018-04-29T07:58:55.799Z,20.83
2018-04-29T08:01:21.620Z,20.80
2018-04-29T08:03:47.432Z,20.79
2018-04-29T08:06:13.265Z,20.83
2018-04-29T08:08:39.066Z,20.78
2018-04-29T08:11:04.997Z,20.87
2018-04-29T08:13:30.800Z,20.81
2018-04-29T08:15:56.745Z,20.83
2018-04-29T08:18:22.669Z,20.86
2018-04-29T08:20:48.476Z,20.85
2018-04-29T08:23:14.292Z,20.85
2018-04-29T08:25:40.096Z,20.83
2018-04-29T08:28:05.907Z,20.83
2018-04-29T08:30:31.714Z,20.86
2018-04-29T08:32:57.645Z,20.97
2018-04-29T08:35:23.457Z,21.01
2018-04-29T08:37:49.261Z,21.11
2018-04-29T08:40:15.069Z,21.29
2018-04-29T08:42:40.878Z,21.34
2018-04-29T08:45:06.696Z,21.35
2018-04-29T08:47:32.510Z,21.43
2018-04-29T08:49:58.315Z,21.44
2018-04-29T08:52:24.120Z,21.47
2018-04-29T08:54:49.986Z,21.46
2018-04-29T08:57:16.034Z,21.46
2018-04-29T08:59:41.841Z,21.40
2018-04-29T09:02:07.641Z,21.35
2018-04-29T09:04:33.554Z,21.43
2018-04-29T09:06:59.361Z,21.39
2018-04-29T09:09:25.166Z,21.35
2018-04-29T09:11:50.975Z,21.34
2018-04-29T09:14:16.874Z,21.39
2018-04-29T09:16:42.713Z,21.39
2018-04-29T09:19:08.528Z,21.37
2018-04-29T09:21:34.378Z,21.34
2018-04-29T09:24:00.185Z,21.41
2018-04-29T09:26:26.005Z,21.29
2018-04-29T09:28:51.806Z,21.34
2018-04-29T09:31:17.617Z,21.32
2018-04-29T09:33:43.433Z,21.33
2018-04-29T09:36:09.245Z,21.34
2018-04-29T09:38:35.076Z,21.29
2018-04-29T09:41:00.916Z,21.32
2018-04-29T09:43:26.813Z,21.31
2018-04-29T09:45:52.581Z,21.31
2018-04-29T09:48:18.424Z,21.34
2018-04-29T09:50:44.290Z,21.08
2018-04-29T09:53:10.150Z,21.19
2018-04-29T09:55:35.962Z,21.43
2018-04-29T09:58:01.769Z,21.60
2018-04-29T10:00:27.585Z,21.57
2018-04-29T10:02:53.405Z,21.47
2018-04-29T10:05:19.228Z,21.54
2018-04-29T10:07:45.046Z,21.48
2018-04-29T10:10:10.913Z,21.44
2018-04-29T10:12:36.720Z,21.40
2018-04-29T10:15:02.533Z,21.40
2018-04-29T10:17:28.369Z,21.32
2018-04-29T10:19:54.168Z,21.42
2018-04-29T10:22:19.969Z,21.39
2018-04-29T10:24:45.809Z,21.32
2018-04-29T10:27:11.729Z,21.35
2018-04-29T10:29:37.545Z,21.31
2018-04-29T10:32:03.404Z,21.37
2018-04-29T10:34:29.213Z,21.29
2018-04-29T10:36:55.024Z,21.32
2018-04-29T10:39:20.838Z,21.19
2018-04-29T10:41:46.649Z,21.19
2018-04-29T10:44:12.533Z,21.47
2018-04-29T10:46:38.341Z,21.54
2018-04-29T10:49:04.145Z,21.59
2018-04-29T10:51:29.948Z,21.44
2018-04-29T10:53:55.817Z,21.44
2018-04-29T10:56:21.646Z,21.43
2018-04-29T10:58:47.733Z,21.37
2018-04-29T11:01:13.565Z,21.27
2018-04-29T11:03:39.384Z,21.33
2018-04-29T11:06:05.189Z,21.35
2018-04-29T11:08:30.988Z,21.31
2018-04-29T11:10:56.788Z,21.32
2018-04-29T11:13:22.593Z,21.18
2018-04-29T11:15:48.535Z,21.34
2018-04-29T11:18:14.411Z,21.30
2018-04-29T11:20:40.960Z,21.15
2018-04-29T11:23:06.764Z,21.11
2018-04-29T11:25:32.574Z,21.17
2018-04-29T11:27:58.382Z,21.31
2018-04-29T11:30:24.194Z,21.38
2018-04-29T11:32:50.068Z,21.27
2018-04-29T11:35:15.881Z,21.28
2018-04-29T11:37:42.424Z,21.19
2018-04-29T11:40:08.229Z,21.25
2018-04-29T11:42:34.033Z,21.28
2018-04-29T11:44:59.840Z,21.32
2018-04-29T11:47:25.644Z,21.28
2018-04-29T11:49:51.449Z,21.31
2018-04-29T11:52:17.266Z,21.30
2018-04-29T11:54:43.070Z,21.29
2018-04-29T11:57:08.886Z,21.33
2018-04-29T11:59:34.756Z,21.28
2018-04-29T12:02:00.663Z,21.23
2018-04-29T12:04:26.587Z,21.15
2018-04-29T12:06:52.396Z,21.19
2018-04-29T12:09:18.200Z,21.19
2018-04-29T12:11:44.057Z,21.13
2018-04-29T12:14:09.910Z,21.19
2018-04-29T12:16:35.721Z,21.10
2018-04-29T12:19:01.530Z,21.13
2018-04-29T12:21:27.353Z,21.11
2018-04-29T12:23:53.166Z,21.11
2018-04-29T12:26:18.981Z,21.12
2018-04-29T12:28:44.784Z,21.11
2018-04-29T12:31:10.600Z,21.10
2018-04-29T12:33:36.440Z,21.10
2018-04-29T12:36:02.328Z,21.10
2018-04-29T12:38:28.140Z,21.07
2018-04-29T12:40:54.028Z,21.06
2018-04-29T12:43:20.848Z,21.11
2018-04-29T12:45:46.649Z,21.08
2018-04-29T12:48:12.453Z,21.11
2018-04-29T12:50:38.285Z,21.11
2018-04-29T12:53:04.097Z,21.10
2018-04-29T12:55:29.906Z,21.06
2018-04-29T12:57:55.828Z,21.07
2018-04-29T13:00:21.638Z,21.08
2018-04-29T13:02:47.485Z,21.03
2018-04-29T13:05:13.327Z,21.06
2018-04-29T13:07:39.137Z,21.01
2018-04-29T13:10:04.946Z,20.98
2018-04-29T13:12:30.745Z,21.02
2018-04-29T13:14:56.574Z,21.02
2018-04-29T13:17:22.384Z,21.04
2018-04-29T13:19:48.188Z,21.05
2018-04-29T13:22:13.994Z,21.01
2018-04-29T13:24:39.844Z,20.98
2018-04-29T13:27:05.651Z,20.99
2018-04-29T13:29:31.533Z,21.02
2018-04-29T13:31:57.340Z,21.03
2018-04-29T13:34:23.167Z,21.03
2018-04-29T13:36:49.013Z,21.01
2018-04-29T13:39:14.822Z,21.02
2018-04-29T13:41:40.629Z,21.02
2018-04-29T13:44:06.442Z,20.99
2018-04-29T13:46:32.244Z,21.02
2018-04-29T13:48:58.048Z,20.99
2018-04-29T13:51:23.856Z,20.98
2018-04-29T13:53:49.692Z,21.02
2018-04-29T13:56:15.605Z,20.97
2018-04-29T13:58:41.472Z,21.00
2018-04-29T14:01:07.283Z,20.98
2018-04-29T14:03:33.120Z,20.99
2018-04-29T14:05:58.952Z,21.00
2018-04-29T14:08:24.765Z,21.02
2018-04-29T14:10:50.604Z,21.00
2018-04-29T14:13:16.408Z,20.99
2018-04-29T14:15:42.217Z,20.99
2018-04-29T14:18:08.963Z,21.03
2018-04-29T14:20:34.769Z,21.04
2018-04-29T14:23:00.576Z,21.01
2018-04-29T14:25:26.384Z,20.98
2018-04-29T14:27:52.193Z,20.98
2018-04-29T14:30:17.998Z,20.97
2018-04-29T14:32:43.816Z,20.99
2018-04-29T14:35:09.622Z,21.00
2018-04-29T14:37:35.429Z,21.00
2018-04-29T14:40:01.232Z,20.98
2018-04-29T14:42:27.040Z,20.97
2018-04-29T14:44:52.849Z,21.00
2018-04-29T14:47:18.648Z,20.99
2018-04-29T14:49:44.453Z,20.94
2018-04-29T14:52:10.260Z,21.02
2018-04-29T14:54:36.064Z,20.99
2018-04-29T14:57:01.873Z,20.99
2018-04-29T14:59:27.676Z,20.93
2018-04-29T15:01:53.559Z,20.91
2018-04-29T15:04:19.379Z,20.96
2018-04-29T15:06:45.181Z,20.98
2018-04-29T15:09:10.989Z,20.96
2018-04-29T15:11:36.799Z,20.96
2018-04-29T15:14:02.617Z,20.98
2018-04-29T15:16:28.429Z,20.97
2018-04-29T15:18:55.130Z,20.98
2018-04-29T15:21:20.945Z,20.95
2018-04-29T15:23:46.860Z,20.94
2018-04-29T15:26:12.696Z,20.97
2018-04-29T15:28:38.509Z,20.95
2018-04-29T15:31:04.340Z,20.96
2018-04-29T15:33:30.145Z,20.92
2018-04-29T15:35:55.981Z,20.98
2018-04-29T15:38:21.784Z,20.95
2018-04-29T15:40:47.620Z,20.94
2018-04-29T15:43:13.429Z,20.96
2018-04-29T15:45:39.264Z,20.96
2018-04-29T15:48:05.108Z,20.98
2018-04-29T15:50:30.921Z,20.91
2018-04-29T15:52:56.757Z,20.88
2018-04-29T15:55:22.585Z,20.95
2018-04-29T15:57:48.420Z,20.95
2018-04-29T16:00:14.229Z,20.87
2018-04-29T16:02:40.075Z,20.92
2018-04-29T16:05:05.877Z,20.90
2018-04-29T16:07:31.711Z,20.94
2018-04-29T16:09:57.547Z,20.92
2018-04-29T16:12:23.458Z,20.93
2018-04-29T16:14:49.272Z,20.99
2018-04-29T16:17:15.124Z,20.92
2018-04-29T16:19:40.965Z,20.96
2018-04-29T16:22:06.784Z,20.95
2018-04-29T16:24:32.592Z,20.93
2018-04-29T16:26:58.400Z,20.95
2018-04-29T16:29:24.233Z,20.96
2018-04-29T16:31:50.068Z,20.92
2018-04-29T16:34:15.897Z,20.99
2018-04-29T16:36:41.739Z,20.98
2018-04-29T16:39:07.569Z,20.96
2018-04-29T16:41:33.397Z,20.97
2018-04-29T16:43:59.320Z,20.94
2018-04-29T16:46:25.134Z,20.94
2018-04-29T16:48:50.941Z,20.94
2018-04-29T16:51:16.747Z,20.93
2018-04-29T16:53:42.561Z,20.94
2018-04-29T16:56:08.368Z,20.99
2018-04-29T16:58:34.239Z,20.96
2018-04-29T17:01:00.047Z,20.94
2018-04-29T17:03:25.868Z,20.95
2018-04-29T17:05:51.700Z,20.97
2018-04-29T17:08:18.081Z,20.94
2018-04-29T17:10:43.892Z,20.90
2018-04-29T17:13:09.701Z,20.92
2018-04-29T17:15:35.540Z,20.93
2018-04-29T17:18:01.345Z,20.95
2018-04-29T17:20:27.155Z,20.90
2018-04-29T17:22:52.970Z,20.91
2018-04-29T17:25:18.777Z,20.90
2018-04-29T17:27:44.616Z,20.94
2018-04-29T17:30:10.429Z,20.88
2018-04-29T17:32:36.312Z,20.93
2018-04-29T17:35:02.118Z,20.94
2018-04-29T17:37:27.925Z,20.93
2018-04-29T17:39:53.766Z,20.89
2018-04-29T17:42:19.580Z,20.92
2018-04-29T17:44:45.388Z,20.91
2018-04-29T17:47:11.192Z,20.94
2018-04-29T17:49:37.005Z,20.98
2018-04-29T17:52:02.816Z,20.91
2018-04-29T17:54:28.620Z,20.91
2018-04-29T17:56:54.427Z,20.94
2018-04-29T17:59:20.237Z,20.93
2018-04-29T18:01:46.063Z,20.90
2018-04-29T18:04:12.566Z,20.90
2018-04-29T18:06:38.497Z,20.90
2018-04-29T18:09:04.330Z,20.90
2018-04-29T18:11:30.142Z,20.86
2018-04-29T18:13:56.005Z,20.89
2018-04-29T18:16:29.474Z,20.90
2018-04-29T18:19:08.101Z,20.87
2018-04-29T18:21:35.766Z,20.84
2018-04-29T18:24:01.674Z,20.88
2018-04-29T18:26:27.489Z,20.88
2018-04-29T18:28:53.333Z,20.88
2018-04-29T18:31:19.210Z,20.90
2018-04-29T18:33:45.122Z,20.86
2018-04-29T18:36:10.955Z,20.90
2018-04-29T18:38:37.181Z,20.88
2018-04-29T18:41:02.990Z,20.89
2018-04-29T18:43:28.819Z,20.93
2018-04-29T18:45:54.635Z,20.92
2018-04-29T18:48:20.493Z,20.88
2018-04-29T18:50:46.472Z,20.91
2018-04-29T18:53:12.303Z,20.95
2018-04-29T18:55:38.162Z,20.90
2018-04-29T18:58:03.980Z,20.89
2018-04-29T19:00:29.791Z,20.89
2018-04-29T19:02:55.619Z,20.90
2018-04-29T19:05:21.461Z,20.90
2018-04-29T19:07:47.327Z,20.95
2018-04-29T19:10:13.181Z,20.90
2018-04-29T19:12:39.022Z,20.99
2018-04-29T19:15:04.862Z,21.11
2018-04-29T19:17:30.660Z,21.17
2018-04-29T19:19:56.514Z,21.29
2018-04-29T19:22:22.996Z,21.33
2018-04-29T19:24:48.805Z,21.32
2018-04-29T19:27:14.613Z,21.36
2018-04-29T19:29:40.493Z,21.41
2018-04-29T19:32:06.301Z,21.41
2018-04-29T19:34:32.145Z,21.42
2018-04-29T19:36:57.992Z,21.41
2018-04-29T19:39:23.949Z,21.43
2018-04-29T19:41:49.980Z,21.39
2018-04-29T19:44:16.997Z,21.42
2018-04-29T19:46:42.834Z,21.40
2018-04-29T19:49:08.664Z,21.39
2018-04-29T19:51:34.505Z,21.41
2018-04-29T19:54:00.313Z,21.39
2018-04-29T19:56:26.174Z,21.35
2018-04-29T19:58:51.985Z,21.34
2018-04-29T20:01:17.801Z,21.38
2018-04-29T20:03:43.614Z,21.35
2018-04-29T20:06:09.459Z,21.31
2018-04-29T20:08:35.269Z,21.33
2018-04-29T20:11:01.082Z,21.32
2018-04-29T20:13:26.888Z,21.34
2018-04-29T20:15:52.738Z,21.31
2018-04-29T20:18:18.553Z,21.33
2018-04-29T20:20:44.414Z,21.28
2018-04-29T20:23:10.226Z,21.31
2018-04-29T20:28:19.821Z,21.15
2018-04-29T20:30:45.675Z,21.20
2018-04-29T20:33:11.489Z,21.18
2018-04-29T20:35:37.293Z,21.18
2018-04-29T20:38:03.197Z,21.27
2018-04-29T20:40:28.959Z,21.20
2018-04-29T20:42:54.768Z,21.23
2018-04-29T20:45:20.581Z,21.20
2018-04-29T20:47:46.395Z,21.20
2018-04-29T20:50:12.209Z,21.21
2018-04-29T20:52:38.014Z,21.20
2018-04-29T20:55:03.821Z,21.14
2018-04-29T20:57:29.652Z,21.17
2018-04-29T20:59:55.477Z,21.12
2018-04-29T21:02:21.287Z,21.20
2018-04-29T21:04:47.150Z,21.18
2018-04-29T21:07:12.962Z,21.20
2018-04-29T21:09:38.778Z,21.23
2018-04-29T21:12:04.598Z,21.21
2018-04-29T21:14:30.400Z,21.21
2018-04-29T21:16:56.205Z,21.19
2018-04-29T21:19:22.044Z,21.22
2018-04-29T21:21:47.849Z,21.22
2018-04-29T21:24:13.680Z,21.20
2018-04-29T21:26:39.485Z,21.22
2018-04-29T21:29:05.301Z,21.18
2018-04-29T21:31:31.115Z,21.19
2018-04-29T21:33:56.935Z,21.19
2018-04-29T21:36:22.759Z,21.15
2018-04-29T21:38:48.577Z,21.19
2018-04-29T21:41:14.385Z,21.16
2018-04-29T21:43:40.196Z,21.17
2018-04-29T21:46:06.000Z,21.17
2018-04-29T21:48:31.806Z,21.16
2018-04-29T21:50:57.621Z,21.14
2018-04-29T21:53:23.424Z,21.20
2018-04-29T21:55:49.271Z,21.17
2018-04-29T21:58:15.073Z,21.17
2018-04-29T22:00:47.952Z,21.15
2018-04-29T22:03:13.755Z,21.08
2018-04-29T22:05:39.565Z,21.13
2018-04-29T22:08:05.378Z,21.08
2018-04-29T22:10:31.180Z,21.10
2018-04-29T22:13:02.878Z,21.10
2018-04-29T22:15:28.689Z,21.08
2018-04-29T22:17:54.492Z,21.11
2018-04-29T22:20:20.293Z,21.13
2018-04-29T22:22:46.120Z,21.15
2018-04-29T22:25:11.930Z,21.12
2018-04-29T22:27:37.740Z,21.08
2018-04-29T22:30:03.549Z,21.11
2018-04-29T22:32:29.352Z,21.05
2018-04-29T22:34:55.165Z,21.10
2018-04-29T22:37:21.076Z,21.12
2018-04-29T22:39:46.930Z,21.10
2018-04-29T22:42:12.744Z,21.10
2018-04-29T22:44:38.556Z,21.12
2018-04-29T22:47:04.356Z,21.12
2018-04-29T22:49:30.161Z,21.06
2018-04-29T22:51:55.970Z,21.08
2018-04-29T22:54:21.802Z,21.12
2018-04-29T22:56:47.679Z,21.08
2018-04-29T22:59:14.069Z,21.05
2018-04-29T23:01:39.877Z,21.07
2018-04-29T23:04:05.750Z,21.10
2018-04-29T23:06:31.558Z,21.11
2018-04-29T23:08:57.369Z,21.06
2018-04-29T23:11:23.182Z,21.08
2018-04-29T23:13:49.015Z,21.09
2018-04-29T23:16:14.968Z,21.12
2018-04-29T23:18:40.816Z,21.09
2018-04-29T23:21:06.644Z,21.08
2018-04-29T23:23:32.481Z,21.04
2018-04-29T23:25:58.296Z,21.06
2018-04-29T23:28:24.129Z,21.04
2018-04-29T23:30:49.977Z,21.01
2018-04-29T23:33:15.841Z,21.00
2018-04-29T23:35:41.844Z,21.04
2018-04-29T23:38:07.653Z,21.04
2018-04-29T23:40:33.493Z,21.02
2018-04-29T23:42:59.305Z,21.05
2018-04-29T23:45:25.183Z,21.03
2018-04-29T23:47:51.122Z,21.01
2018-04-29T23:50:16.933Z,21.01
2018-04-29T23:52:42.737Z,21.02
2018-04-29T23:55:08.539Z,21.03
2018-04-29T23:57:34.349Z,21.05
